Time;durP1;ratioP1;P1;durP2;ratioP2;P2;SDS_P1;SDS_P2;PMS_P1;PMS_P2;Temp;Humidity;BMP_temperature;BMP_pressure;BME280_temperature;BME280_humidity;BME280_pressure;Samples;Min_cycle;Max_cycle;Signal;HPM_P1;HPM_P2
2021/07/04 00:01:40;;;;;;;4.80;3.47;;;;;;;24.85;77.43;97720.44;5071358;28;20216;-71
2021/07/04 00:04:07;;;;;;;5.67;3.50;;;;;;;;;;5074002;28;20223;-71
2021/07/04 00:06:34;;;;;;;4.43;3.50;;;;;;;25.51;75.37;97709.13;5073416;28;20232;-71
2021/07/04 00:09:02;;;;;;;5.23;3.53;;;;;;;25.70;73.18;97713.34;5073082;28;20208;-71
2021/07/04 00:11:29;;;;;;;6.43;3.50;;;;;;;25.61;72.58;97714.38;5071018;28;20226;-72
2021/07/04 00:13:56;;;;;;;4.93;3.67;;;;;;;25.75;71.78;97709.72;5064762;28;20226;-71
2021/07/04 00:16:25;;;;;;;5.57;3.70;;;;;;;25.81;71.44;97724.91;5071465;28;20223;-71
2021/07/04 00:18:52;;;;;;;4.23;3.50;;;;;;;25.98;70.36;97722.38;5071227;28;20203;-71
2021/07/04 00:21:19;;;;;;;7.27;3.77;;;;;;;25.76;72.74;97730.47;5073400;28;20687;-72
2021/07/04 00:23:47;;;;;;;4.33;3.23;;;;;;;25.77;72.77;97732.09;5071791;28;20211;-72
2021/07/04 00:26:14;;;;;;;4.40;3.20;;;;;;;25.88;71.63;97737.06;5073154;28;20228;-71
2021/07/04 00:28:42;;;;;;;5.13;4.00;;;;;;;25.40;73.86;97735.03;5073358;28;20277;-72
2021/07/04 00:31:09;;;;;;;5.83;3.87;;;;;;;24.98;78.16;97733.28;5068782;28;20636;-71
2021/07/04 00:33:38;;;;;;;5.70;3.73;;;;;;;25.66;74.08;97730.69;5071279;28;20203;-71
2021/07/04 00:36:06;;;;;;;4.77;3.70;;;;;;;25.50;74.08;97730.19;5072314;28;20708;-71
2021/07/04 00:38:35;;;;;;;6.00;4.07;;;;;;;26.04;71.34;97732.13;5075096;28;20205;-71
2021/07/04 00:41:02;;;;;;;6.87;4.57;;;;;;;26.20;70.23;97734.19;5064882;28;20215;-71
2021/07/04 00:43:29;;;;;;;5.07;4.00;;;;;;;26.11;70.53;97727.84;5063746;28;20209;-72
2021/07/04 00:45:57;;;;;;;5.50;4.00;;;;;;;26.52;68.16;97720.34;5071157;28;20729;-71
2021/07/04 00:48:24;;;;;;;5.37;4.10;;;;;;;25.11;77.09;97712.59;5070547;28;20218;-71
2021/07/04 00:50:53;;;;;;;6.47;4.27;;;;;;;26.40;69.52;97711.84;5071514;28;20227;-71
2021/07/04 00:53:22;;;;;;;5.07;4.17;;;;;;;25.73;71.84;97703.72;5072792;28;20698;-72
2021/07/04 00:55:49;;;;;;;7.10;3.73;;;;;;;25.49;73.60;97694.97;5071370;28;20231;-71
2021/07/04 00:58:17;;;;;;;6.87;4.33;;;;;;;25.57;72.93;97695.06;5068932;28;20216;-72
2021/07/04 01:00:44;;;;;;;5.57;3.93;;;;;;;25.98;71.05;97700.50;5070343;28;20207;-71
2021/07/04 01:03:11;;;;;;;7.37;4.00;;;;;;;26.26;71.25;97694.69;5072691;28;20209;-71
2021/07/04 01:05:41;;;;;;;4.83;4.00;;;;;;;25.89;73.03;97694.13;5071507;28;20231;-72
2021/07/04 01:08:10;;;;;;;6.30;3.97;;;;;;;26.26;69.91;97696.59;5071697;28;20204;-73
2021/07/04 01:10:39;;;;;;;6.70;4.00;;;;;;;26.34;69.06;97704.06;5070633;28;20221;-72
2021/07/04 01:13:08;;;;;;;9.07;3.97;;;;;;;26.25;69.65;97701.25;5070978;28;20686;-72
2021/07/04 01:15:36;;;;;;;7.70;4.30;;;;;;;26.10;69.89;97698.84;5071669;28;20235;-72
2021/07/04 01:18:07;;;;;;;8.23;4.60;;;;;;;26.10;70.48;97698.06;5072389;28;20847;-71
2021/07/04 01:20:35;;;;;;;6.10;4.53;;;;;;;26.07;71.37;97695.94;5067569;28;20211;-72
2021/07/04 01:23:06;;;;;;;5.90;4.33;;;;;;;25.98;71.60;97687.66;5071941;28;20579;-72
2021/07/04 01:25:35;;;;;;;5.97;4.20;;;;;;;25.90;72.09;97687.53;5071507;28;20237;-71
2021/07/04 01:28:03;;;;;;;8.70;4.50;;;;;;;25.64;74.44;97684.50;5062322;28;20211;-71
2021/07/04 01:30:31;;;;;;;6.50;4.40;;;;;;;25.44;74.57;97704.06;5071204;28;20232;-72
2021/07/04 01:32:58;;;;;;;6.40;4.13;;;;;;;25.53;73.75;97690.50;5068607;28;20218;-72
2021/07/04 01:35:26;;;;;;;5.37;4.50;;;;;;;25.28;73.77;97693.75;5070450;28;20237;-72
2021/07/04 01:37:54;;;;;;;5.90;4.30;;;;;;;25.53;72.84;97693.25;5071394;28;20207;-71
2021/07/04 01:40:23;;;;;;;5.70;4.20;;;;;;;25.30;75.60;97696.97;5071970;28;20211;-71
2021/07/04 01:42:51;;;;;;;6.23;4.03;;;;;;;25.44;73.41;97709.50;5069427;28;20664;-71
2021/07/04 01:45:19;;;;;;;7.13;4.47;;;;;;;25.22;76.41;97697.63;5071892;28;20223;-72
2021/07/04 01:47:49;;;;;;;5.50;4.20;;;;;;;25.92;71.42;97701.72;5070134;28;20667;-71
2021/07/04 01:50:18;;;;;;;6.93;4.10;;;;;;;25.82;73.00;97693.72;5065730;28;20700;-72
2021/07/04 01:52:46;;;;;;;5.07;4.30;;;;;;;25.32;75.36;97703.75;5060391;28;20581;-71
2021/07/04 01:55:15;;;;;;;5.47;4.10;;;;;;;25.77;72.28;97693.81;5068600;28;20579;-72
2021/07/04 01:57:43;;;;;;;5.50;4.03;;;;;;;25.37;73.37;97691.91;5070917;28;20206;-72
2021/07/04 02:00:14;;;;;;;6.53;4.50;;;;;;;24.86;79.38;97688.47;5070735;28;20204;-71
2021/07/04 02:02:43;;;;;;;4.90;4.40;;;;;;;25.59;73.61;97687.34;5067158;28;20207;-72
2021/07/04 02:05:11;;;;;;;4.83;4.07;;;;;;;25.29;74.71;97690.69;5070879;28;20234;-71
2021/07/04 02:07:38;;;;;;;6.13;4.60;;;;;;;24.92;76.16;97677.16;5070671;28;20226;-71
2021/07/04 02:10:07;;;;;;;6.10;4.47;;;;;;;24.45;80.91;97676.56;5071460;28;20215;-71
2021/07/04 02:12:35;;;;;;;7.10;5.00;;;;;;;24.07;82.31;97678.50;5068718;28;20203;-72
2021/07/04 02:15:10;;;;;;;6.27;4.67;;;;;;;25.24;75.93;97682.56;5069220;28;20706;-71
2021/07/04 02:17:37;;;;;;;6.63;4.60;;;;;;;25.37;74.55;97680.97;5060565;28;20670;-72
2021/07/04 02:20:31;;;;;;;6.70;4.47;;;;;;;25.23;75.63;97688.34;5064467;28;20661;-71
2021/07/04 02:23:00;;;;;;;6.63;4.77;;;;;;;25.08;76.27;97680.44;5061977;28;20210;-72
2021/07/04 02:25:27;;;;;;;5.80;4.60;;;;;;;24.44;79.62;97674.97;5065806;28;20226;-72
2021/07/04 02:27:54;;;;;;;5.57;4.53;;;;;;;24.52;79.89;97672.34;5066274;28;20218;-71
2021/07/04 02:30:23;;;;;;;7.03;4.13;;;;;;;25.16;76.16;97675.06;5069593;28;20204;-71
2021/07/04 02:32:50;;;;;;;6.80;4.63;;;;;;;24.33;80.94;97668.03;5071368;28;20210;-71
2021/07/04 02:35:18;;;;;;;6.27;5.20;;;;;;;24.87;77.39;97671.00;5070914;28;20226;-71
2021/07/04 02:37:45;;;;;;;8.83;5.17;;;;;;;24.56;78.94;97675.28;5069825;28;20205;-72
2021/07/04 02:40:13;;;;;;;6.03;4.57;;;;;;;25.09;76.61;97682.84;5070799;28;20212;-72
2021/07/04 02:42:41;;;;;;;7.60;5.20;;;;;;;25.23;75.25;97680.94;5069625;28;20207;-71
2021/07/04 02:45:09;;;;;;;6.10;4.60;;;;;;;25.23;75.00;97682.88;5064118;28;20232;-71
2021/07/04 02:47:38;;;;;;;7.40;5.23;;;;;;;25.15;76.38;97676.19;5069857;28;20207;-71
2021/07/04 02:50:07;;;;;;;7.20;5.13;;;;;;;24.98;77.03;97675.16;5069387;28;20223;-71
2021/07/04 02:52:34;;;;;;;7.33;4.90;;;;;;;24.88;78.37;97667.94;5069670;28;20226;-73
2021/07/04 02:55:01;;;;;;;7.47;5.63;;;;;;;24.74;80.42;97661.66;5063305;28;20264;-71
2021/07/04 02:57:28;;;;;;;7.10;5.40;;;;;;;24.82;78.41;97660.94;5069291;28;20212;-71
2021/07/04 02:59:56;;;;;;;7.83;5.40;;;;;;;25.35;75.80;97672.28;5067967;28;20209;-71
2021/07/04 03:02:23;;;;;;;6.60;5.00;;;;;;;24.13;83.51;97662.91;5070624;28;20206;-72
2021/07/04 03:04:53;;;;;;;8.73;5.13;;;;;;;24.85;80.21;97665.00;5070673;28;20584;-71
2021/07/04 03:07:20;;;;;;;8.40;5.37;;;;;;;25.29;76.59;97666.09;5069022;28;20557;-71
2021/07/04 03:09:47;;;;;;;9.20;5.20;;;;;;;25.35;75.59;97667.63;5071000;28;20210;-71
2021/07/04 03:12:15;;;;;;;8.50;4.77;;;;;;;24.80;78.44;97662.38;5069913;28;20238;-72
2021/07/04 03:14:42;;;;;;;6.27;4.80;;;;;;;24.68;79.67;97671.03;5066566;28;20212;-72
2021/07/04 03:17:09;;;;;;;7.33;5.17;;;;;;;24.93;77.93;97664.31;5068581;28;20210;-71
2021/07/04 03:19:36;;;;;;;6.83;4.93;;;;;;;25.03;76.89;97675.06;5064450;28;20211;-71
2021/07/04 03:22:05;;;;;;;7.87;5.33;;;;;;;24.96;78.33;97667.25;5069603;28;20203;-71
2021/07/04 03:24:32;;;;;;;7.57;4.93;;;;;;;25.08;76.80;97662.09;5070044;28;20204;-71
2021/07/04 03:27:00;;;;;;;6.33;5.07;;;;;;;24.65;80.20;97659.91;5060387;28;20206;-71
2021/07/04 03:29:27;;;;;;;8.57;5.13;;;;;;;24.93;78.62;97664.31;5069340;28;20217;-72
2021/07/04 03:31:54;;;;;;;11.67;5.50;;;;;;;25.05;77.96;97665.47;5066620;28;20235;-72
2021/07/04 03:34:22;;;;;;;7.07;4.83;;;;;;;25.46;75.25;97663.59;5069697;28;20219;-71
2021/07/04 03:36:49;;;;;;;6.60;5.30;;;;;;;25.35;75.50;97648.50;5069487;28;20223;-71
2021/07/04 03:39:17;;;;;;;6.23;4.33;;;;;;;25.63;74.11;97657.47;5070295;28;20681;-71
2021/07/04 03:41:45;;;;;;;10.23;5.00;;;;;;;25.64;74.21;97648.97;5069189;28;20205;-71
2021/07/04 03:44:12;;;;;;;6.10;5.07;;;;;;;25.82;74.33;97658.16;5070198;28;20215;-71
2021/07/04 03:46:39;;;;;;;5.90;4.67;;;;;;;25.92;73.67;97660.72;5062762;28;20230;-72
2021/07/04 03:49:06;;;;;;;6.80;4.27;;;;;;;25.94;73.80;97662.03;5069591;28;20230;-72
2021/07/04 03:51:34;;;;;;;5.53;4.43;;;;;;;26.04;72.19;97656.31;5073360;28;20220;-72
2021/07/04 03:54:01;;;;;;;6.63;5.23;;;;;;;25.86;71.84;97656.44;5073337;28;20684;-73
2021/07/04 03:56:30;;;;;;;6.87;5.17;;;;;;;25.10;78.10;97656.34;5072087;28;20582;-71
2021/07/04 03:58:57;;;;;;;5.47;4.77;;;;;;;25.61;73.92;97666.00;5069598;28;20219;-72
2021/07/04 04:01:24;;;;;;;6.30;4.53;;;;;;;26.15;71.93;97660.44;5069750;28;20214;-71
2021/07/04 04:03:52;;;;;;;8.17;4.50;;;;;;;26.39;70.30;97668.34;5072445;28;20387;-71
2021/07/04 04:06:19;;;;;;;7.57;4.60;;;;;;;26.35;70.80;97672.84;5071888;28;20231;-72
2021/07/04 04:08:48;;;;;;;6.53;4.53;;;;;;;26.54;70.48;97677.03;5071377;28;20210;-72
2021/07/04 04:11:16;;;;;;;5.33;4.40;;;;;;;26.72;69.59;97678.81;5068507;28;20255;-70
2021/07/04 04:13:44;;;;;;;6.47;4.67;;;;;;;26.11;70.87;97680.53;5073612;28;20669;-70
2021/07/04 04:16:11;;;;;;;6.00;4.40;;;;;;;26.43;70.57;97666.63;5072758;28;20235;-70
2021/07/04 04:18:39;;;;;;;8.13;4.37;;;;;;;26.88;68.31;97684.69;5073137;28;20203;-70
2021/07/04 04:21:07;;;;;;;7.20;4.50;;;;;;;26.71;68.21;97682.63;5073190;28;20209;-70
2021/07/04 04:23:34;;;;;;;7.50;4.10;;;;;;;25.60;72.55;97671.78;5073173;28;20207;-71
2021/07/04 04:26:02;;;;;;;7.13;4.70;;;;;;;25.52;75.10;97669.75;5064887;28;20233;-71
2021/07/04 04:28:31;;;;;;;5.07;3.97;;;;;;;25.44;73.83;97673.19;5072896;28;20197;-70
2021/07/04 04:31:00;;;;;;;5.10;4.03;;;;;;;26.71;68.39;97679.09;5070804;28;20826;-70
2021/07/04 04:33:27;;;;;;;5.80;4.40;;;;;;;26.43;71.42;97674.84;5071926;28;20206;-70
2021/07/04 04:35:54;;;;;;;6.63;4.70;;;;;;;26.19;71.58;97674.34;5072464;28;20385;-70
2021/07/04 04:38:21;;;;;;;6.93;4.53;;;;;;;25.40;75.51;97661.25;5070710;28;20708;-70
2021/07/04 04:40:49;;;;;;;5.70;4.43;;;;;;;26.69;69.79;97675.84;5072317;28;20209;-71
2021/07/04 04:43:16;;;;;;;5.57;4.07;;;;;;;26.06;71.80;97656.84;5070755;28;20212;-71
2021/07/04 04:45:43;;;;;;;6.23;4.00;;;;;;;25.03;77.89;97650.47;5070606;28;20232;-71
2021/07/04 04:48:12;;;;;;;6.30;4.37;;;;;;;24.53;82.79;97652.13;5072287;28;20209;-72
2021/07/04 04:50:39;;;;;;;7.37;4.53;;;;;;;25.53;77.26;97654.97;5072442;28;20215;-70
2021/07/04 04:53:06;;;;;;;5.27;4.37;;;;;;;24.80;80.55;97651.44;5068199;28;20712;-71
2021/07/04 04:55:34;;;;;;;5.87;4.30;;;;;;;25.89;75.96;97648.44;5072207;28;20224;-71
2021/07/04 04:58:01;;;;;;;4.90;4.07;;;;;;;26.72;69.73;97659.63;5070740;28;20296;-72
2021/07/04 05:00:29;;;;;;;5.23;4.00;;;;;;;25.97;72.21;97653.22;5071749;28;20201;-71
2021/07/04 05:02:56;;;;;;;6.20;4.37;;;;;;;25.64;77.50;97640.78;5068690;28;20205;-71
2021/07/04 05:05:25;;;;;;;5.07;4.07;;;;;;;26.36;71.77;97649.84;5067257;28;20310;-71
2021/07/04 05:07:52;;;;;;;5.07;4.00;;;;;;;24.85;80.03;97643.16;5072097;28;20211;-71
2021/07/04 05:10:19;;;;;;;8.00;4.73;;;;;;;25.12;79.86;97640.47;5067201;28;20299;-71
2021/07/04 05:12:46;;;;;;;7.40;4.70;;;;;;;24.52;84.23;97636.09;5070689;28;20730;-71
2021/07/04 05:15:13;;;;;;;6.93;4.27;;;;;;;25.54;77.52;97645.66;5066933;28;20225;-71
2021/07/04 05:17:41;;;;;;;9.53;4.27;;;;;;;25.54;76.79;97642.94;5071468;28;20239;-71
2021/07/04 05:20:09;;;;;;;5.60;4.13;;;;;;;24.98;79.89;97639.66;5072325;28;20215;-72
2021/07/04 05:22:38;;;;;;;9.17;4.10;;;;;;;24.89;82.08;97630.53;5071859;28;20205;-71
2021/07/04 05:25:07;;;;;;;6.33;4.93;;;;;;;24.66;82.64;97626.84;5071588;28;20819;-71
2021/07/04 05:27:34;;;;;;;5.20;4.30;;;;;;;23.99;88.44;97626.56;5070250;28;20212;-74
2021/07/04 05:30:02;;;;;;;7.57;5.10;;;;;;;24.11;86.46;97622.28;5071698;28;20205;-76
2021/07/04 05:32:29;;;;;;;7.83;4.80;;;;;;;25.17;81.46;97621.25;5071987;28;20220;-69
2021/07/04 05:34:58;;;;;;;8.13;4.67;;;;;;;26.06;74.71;97626.75;5072191;28;20232;-75
2021/07/04 05:37:25;;;;;;;6.70;4.57;;;;;;;26.12;73.35;97625.50;5071800;28;20209;-69
2021/07/04 05:39:55;;;;;;;7.60;4.83;;;;;;;25.50;77.91;97612.69;5067051;28;20263;-70
2021/07/04 05:42:22;;;;;;;5.20;4.03;;;;;;;25.05;80.20;97602.66;5067235;28;20232;-70
2021/07/04 05:44:51;;;;;;;5.77;4.40;;;;;;;26.57;70.86;97616.22;5071499;28;20599;-69
2021/07/04 05:47:18;;;;;;;6.87;4.23;;;;;;;25.77;75.58;97604.41;5071941;28;20209;-75
2021/07/04 05:49:46;;;;;;;6.67;4.33;;;;;;;25.41;77.83;97610.94;5071604;28;20208;-69
2021/07/04 05:52:13;;;;;;;6.77;4.13;;;;;;;25.84;74.31;97631.34;5071740;28;20236;-70
2021/07/04 05:54:40;;;;;;;5.23;4.30;;;;;;;25.89;74.48;97621.09;5071040;28;20205;-70
2021/07/04 05:57:09;;;;;;;5.97;4.57;;;;;;;27.57;65.35;97629.09;5069665;28;20577;-72
2021/07/04 05:59:36;;;;;;;5.30;4.00;;;;;;;27.05;69.16;97619.84;5067431;28;20205;-69
2021/07/04 06:02:04;;;;;;;5.50;4.20;;;;;;;27.82;63.06;97628.38;5069934;28;20209;-69
2021/07/04 06:04:32;;;;;;;7.57;3.90;;;;;;;28.54;60.98;97632.91;5064901;28;20205;-69
2021/07/04 06:07:00;;;;;;;3.97;3.43;;;;;;;28.39;59.84;97632.63;5063778;28;20213;-69
2021/07/04 06:09:27;;;;;;;5.33;3.57;;;;;;;28.03;62.54;97632.88;5064964;28;20201;-70
2021/07/04 06:11:54;;;;;;;5.93;3.70;;;;;;;27.66;64.23;97627.97;5069827;28;20232;-71
2021/07/04 06:14:23;;;;;;;6.10;4.17;;;;;;;28.43;59.62;97622.59;5070851;28;20211;-72
2021/07/04 06:16:50;;;;;;;4.30;3.90;;;;;;;28.04;63.50;97622.75;5071703;28;20233;-71
2021/07/04 06:19:18;;;;;;;6.07;3.70;;;;;;;28.04;62.74;97628.22;5071195;28;20209;-70
2021/07/04 06:21:45;;;;;;;4.18;3.50;;;;;;;27.07;67.39;97623.06;5070561;28;20891;-77
2021/07/04 06:24:12;;;;;;;5.22;3.95;;;;;;;28.56;61.16;97630.66;5064253;28;20451;-76
2021/07/04 06:26:39;;;;;;;6.77;4.10;;;;;;;28.87;59.20;97624.91;5068717;28;20225;-74
2021/07/04 06:29:07;;;;;;;5.37;3.70;;;;;;;28.64;59.40;97618.84;5067721;28;20213;-77
2021/07/04 06:31:35;;;;;;;5.50;3.53;;;;;;;28.86;57.49;97617.81;5069851;28;20201;-72
2021/07/04 06:34:03;;;;;;;4.27;3.67;;;;;;;27.16;64.61;97612.97;5071423;28;20213;-71
2021/07/04 06:36:30;;;;;;;4.70;3.40;;;;;;;28.02;62.59;97603.06;5069921;28;20260;-71
2021/07/04 06:38:58;;;;;;;5.43;3.63;;;;;;;29.19;55.90;97610.63;5071142;28;20209;-70
2021/07/04 06:41:25;;;;;;;5.20;3.60;;;;;;;27.27;63.50;97608.84;5070163;28;20247;-71
2021/07/04 06:43:53;;;;;;;5.50;3.50;;;;;;;27.53;63.38;97607.00;5068192;28;20204;-76
2021/07/04 06:46:20;;;;;;;6.53;3.50;;;;;;;26.90;62.60;97612.03;5069776;28;20240;-74
2021/07/04 06:48:49;;;;;;;5.73;3.53;;;;;;;27.68;63.08;97616.69;5070450;28;20229;-74
2021/07/04 06:51:16;;;;;;;6.33;3.40;;;;;;;28.82;57.60;97620.41;5065242;28;20206;-73
2021/07/04 06:53:45;;;;;;;4.10;3.67;;;;;;;27.60;62.19;97628.44;5065293;28;20299;-73
2021/07/04 06:56:12;;;;;;;4.00;3.57;;;;;;;27.47;63.14;97632.13;5068954;28;20591;-72
2021/07/04 06:58:39;;;;;;;4.33;3.30;;;;;;;27.38;62.97;97620.31;5069841;28;20213;-73
2021/07/04 07:01:08;;;;;;;8.07;3.87;;;;;;;28.78;57.95;97641.44;5065527;28;20217;-77
2021/07/04 07:03:35;;;;;;;4.33;3.50;;;;;;;29.94;53.19;97644.38;5071587;28;20673;-79
2021/07/04 07:06:03;;;;;;;4.93;3.10;;;;;;;29.73;53.80;97639.97;5071315;28;20217;-79
2021/07/04 07:08:31;;;;;;;4.57;3.63;;;;;;;30.30;50.90;97635.56;5066043;28;20214;-79
2021/07/04 07:10:58;;;;;;;4.03;3.50;;;;;;;29.86;51.53;97642.50;5071077;28;20216;-73
2021/07/04 07:13:25;;;;;;;4.73;3.57;;;;;;;30.71;49.39;97633.56;5071438;28;20264;-72
2021/07/04 07:15:52;;;;;;;5.37;3.40;;;;;;;30.74;50.35;97629.31;5074807;28;20231;-77
2021/07/04 07:18:20;;;;;;;5.27;3.77;;;;;;;31.23;45.72;97642.94;5074258;28;20199;-74
2021/07/04 07:20:47;;;;;;;4.25;3.50;;;;;;;30.87;47.49;97633.75;5069459;28;20231;-72
2021/07/04 07:23:16;;;;;;;3.80;3.25;;;;;;;29.60;54.73;97605.28;5073282;28;20283;-74
2021/07/04 07:25:43;;;;;;;4.35;3.17;;;;;;;29.74;53.30;97612.13;5074072;28;20248;-74
2021/07/04 07:28:10;;;;;;;4.78;3.53;;;;;;;30.53;49.44;97623.03;5074802;28;20229;-75
2021/07/04 07:30:38;;;;;;;4.70;3.53;;;;;;;28.92;55.08;97602.75;5074525;28;20205;-77
2021/07/04 07:33:05;;;;;;;4.00;3.60;;;;;;;29.10;55.17;97604.38;5074432;28;20217;-72
2021/07/04 07:35:32;;;;;;;5.53;3.65;;;;;;;29.98;51.20;97604.03;5068109;28;20233;-73
2021/07/04 07:38:02;;;;;;;9.50;3.65;;;;;;;30.35;49.23;97607.81;5063158;28;20665;-75
2021/07/04 07:40:33;;;;;;;4.78;3.47;;;;;;;29.27;53.25;97591.34;5078459;28;20221;-71
2021/07/04 07:43:00;;;;;;;5.07;3.63;;;21.20;1.00;;;28.67;56.27;97582.50;5067696;28;20600;-80
2021/07/04 07:45:27;;;;;;;5.53;3.75;;;21.30;1.00;;;28.60;56.67;97573.97;5074550;28;20325;-78
2021/07/04 07:47:54;;;;;;;6.20;3.60;;;21.20;1.00;;;28.36;57.81;97561.84;5077733;28;20593;-74
2021/07/04 07:50:33;;;;;;;5.20;3.90;;;21.20;1.00;;;29.39;54.83;97561.19;5084456;28;20210;-76
2021/07/04 07:52:59;;;;;;;4.93;3.93;;;21.40;1.00;;;28.02;59.64;97550.94;5069666;28;20210;-79
2021/07/04 07:55:26;;;;;;;4.30;3.63;;;21.40;1.00;;;29.65;53.90;97559.09;5087930;28;20234;-78
2021/07/04 07:57:55;;;;;;;5.67;4.00;;;21.70;1.00;;;28.23;57.75;97549.13;5085993;28;20215;-78
2021/07/04 08:00:23;;;;;;;5.57;3.67;;;21.60;1.00;;;28.00;59.49;97550.44;5080396;28;20204;-78
2021/07/04 08:02:50;;;;;;;3.90;3.50;;;21.50;1.00;;;27.71;59.87;97553.00;5086557;28;20208;-78
2021/07/04 08:05:17;;;;;;;4.70;4.20;;;21.40;1.00;;;29.59;53.56;97556.91;5078321;28;20237;-78
2021/07/04 08:07:44;;;;;;;6.77;4.13;;;21.50;1.00;;;30.87;48.44;97573.09;5075906;28;20198;-79
2021/07/04 08:10:13;;;;;;;3.85;3.42;;;;;;;29.77;51.35;97572.97;5074394;28;20212;-71
2021/07/04 08:12:40;;;;;;;4.80;3.65;;;22.40;1.00;;;30.38;50.33;97577.66;5072630;28;20690;-73
2021/07/04 08:15:10;;;;;;;5.68;3.72;;;22.50;1.00;;;28.98;53.51;97561.06;5072917;28;20228;-73
2021/07/04 08:17:37;;;;;;;5.20;3.92;;;22.20;1.00;;;29.97;51.38;97569.41;5070646;28;20207;-71
2021/07/04 08:20:06;;;;;;;3.95;3.38;;;22.00;1.00;;;30.50;49.63;97565.88;5066139;28;20578;-72
2021/07/04 08:22:33;;;;;;;4.72;3.88;;;21.70;1.00;;;30.93;45.90;97569.78;5070388;28;20785;-72
2021/07/04 08:25:00;;;;;;;6.97;4.03;;;21.90;1.00;;;29.46;50.96;97564.25;5062986;28;20231;-73
2021/07/04 08:27:27;;;;;;;4.00;3.60;;;22.10;1.00;;;29.26;51.62;97558.69;5073351;28;20201;-72
2021/07/04 08:29:53;;;;;;;4.53;3.70;;;22.10;1.00;;;31.19;46.22;97572.22;5073923;28;20293;-73
2021/07/04 08:32:22;;;;;;;5.05;3.63;;;22.50;1.00;;;31.12;46.10;97575.53;5073675;28;20209;-71
2021/07/04 08:34:49;;;;;;;3.88;3.35;;;22.80;1.00;;;31.07;45.96;97572.22;5072312;28;20202;-73
2021/07/04 08:37:16;;;;;;;4.07;3.63;;;23.20;1.00;;;30.80;46.39;97578.34;5072810;28;20208;-75
2021/07/04 08:39:43;;;;;;;4.05;3.53;;;23.20;1.00;;;29.18;52.92;97557.59;5073559;28;20238;-73
2021/07/04 08:42:11;;;;;;;4.65;3.33;;;;;;;30.53;49.16;97557.72;5073353;28;20288;-77
2021/07/04 08:44:46;;;;;;;4.55;3.58;;;23.00;1.00;;;32.81;41.49;97581.53;5071991;28;20688;-73
2021/07/04 08:47:14;;;;;;;6.00;3.88;;;23.30;1.00;;;32.38;40.90;97592.56;5073257;28;20390;-75
2021/07/04 08:49:42;;;;;;;3.78;3.15;;;23.90;1.00;;;29.93;48.24;97568.47;5072847;28;20193;-76
2021/07/04 08:52:09;;;;;;;3.70;3.05;;;23.10;1.00;;;31.90;42.93;97576.13;5066651;28;20204;-75
2021/07/04 08:54:36;;;;;;;4.93;3.10;;;23.30;1.00;;;31.79;43.00;97578.56;5072689;28;20221;-75
2021/07/04 08:57:08;;;;;;;4.05;3.33;;;23.40;99.90;;;31.13;43.35;97581.88;5073002;28;20201;-74
2021/07/04 08:59:35;;;;;;;5.40;3.83;;;23.40;99.90;;;32.00;41.00;97578.38;5072540;28;20678;-75
2021/07/04 09:02:03;;;;;;;4.95;3.10;;;23.80;99.90;;;31.81;42.94;97578.19;5072597;28;20197;-75
2021/07/04 09:04:30;;;;;;;4.18;3.58;;;23.50;1.00;;;29.15;51.49;97562.94;5072244;28;20212;-75
2021/07/04 09:06:59;;;;;;;5.13;3.58;;;22.80;1.00;;;30.00;50.65;97563.22;5072884;28;20213;-76
2021/07/04 09:09:30;;;;;;;5.82;3.53;;;22.80;1.00;;;29.94;49.79;97553.56;5072971;28;20216;-76
2021/07/04 09:12:01;;;;;;;4.18;3.60;;;22.80;1.00;;;29.28;51.62;97554.47;5072395;28;20213;-76
2021/07/04 09:14:37;;;;;;;5.57;3.65;;;22.70;99.90;;;29.06;52.25;97552.00;5072581;28;20214;-74
2021/07/04 09:17:06;;;;;;;3.90;2.78;;;22.40;1.00;;;30.12;48.70;97554.25;5065019;28;20257;-74
2021/07/04 09:19:34;;;;;;;3.90;2.95;;;22.50;1.00;;;29.75;47.65;97555.16;5073086;28;20250;-75
2021/07/04 09:22:07;;;;;;;3.90;2.90;;;22.40;1.00;;;30.15;47.04;97561.84;5073777;28;20205;-75
2021/07/04 09:24:41;;;;;;;3.30;3.00;;;22.60;1.00;;;30.91;44.13;97561.03;5072372;28;20211;-73
2021/07/04 09:27:08;;;;;;;3.17;2.85;;;22.60;1.00;;;30.36;46.45;97557.88;5068547;28;20292;-75
2021/07/04 09:29:56;;;;;;;3.13;2.83;;;22.50;1.00;;;29.75;48.05;97541.41;5073391;28;20202;-73
2021/07/04 09:32:26;;;;;;;4.03;2.58;;;22.60;1.00;;;28.65;48.17;97548.25;5065079;28;20208;-74
2021/07/04 09:35:03;;;;;;;2.85;2.55;;;22.50;1.00;;;28.79;47.60;97535.91;5073020;28;20239;-75
2021/07/04 09:37:35;;;;;;;2.60;2.40;;;22.30;1.00;;;28.93;46.17;97543.97;5070288;28;20189;-73
2021/07/04 09:40:21;;;;;;;4.00;2.70;;;22.20;1.00;;;30.43;42.92;97535.31;5071546;28;20218;-76
2021/07/04 09:43:06;;;;;;;3.85;2.85;;;22.90;99.90;;;29.57;46.83;97528.91;5070901;28;20201;-75
2021/07/04 09:45:49;;;;;;;4.40;3.08;;;23.00;1.00;;;29.96;46.73;97525.69;5072514;28;20586;-75
2021/07/04 09:48:19;;;;;;;4.47;3.15;;;23.00;1.00;;;31.18;44.89;97520.97;5072228;28;20193;-75
2021/07/04 09:50:49;;;;;;;3.70;2.92;;;23.10;1.00;;;30.66;43.53;97528.28;5072500;28;20193;-76
2021/07/04 09:53:18;;;;;;;3.45;2.83;;;23.20;1.00;;;30.15;44.63;97526.84;5072170;28;20220;-78
2021/07/04 09:55:50;;;;;;;3.00;2.70;;;23.30;1.00;;;29.58;47.46;97508.50;5075363;28;20229;-78
2021/07/04 09:58:17;;;;;;;3.42;3.00;;;23.30;1.00;;;29.99;46.27;97511.28;5076933;28;20197;-78
2021/07/04 10:00:47;;;;;;;3.40;2.75;;;23.40;1.00;;;29.41;46.50;97517.69;5071908;28;20575;-71
2021/07/04 10:03:20;;;;;;;4.07;2.80;;;23.40;1.00;;;30.40;44.66;97514.75;5071289;28;20698;-72
2021/07/04 10:06:04;;;;;;;2.97;2.40;;;23.30;1.00;;;28.87;48.99;97498.53;5069018;28;20221;-72
2021/07/04 10:08:34;;;;;;;3.03;2.72;;;23.40;1.00;;;30.65;43.44;97502.66;5071061;28;20368;-73
2021/07/04 10:11:05;;;;;;;3.60;2.47;;;;;;;32.67;37.77;97515.59;5063748;28;20213;-72
2021/07/04 10:13:37;;;;;;;2.67;2.33;;;;;;;30.37;41.51;97500.88;5071983;28;20599;-75
2021/07/04 10:16:07;;;;;;;3.08;2.75;;;;;;;31.49;41.25;97504.66;5071447;28;20316;-72
2021/07/04 10:18:34;;;;;;;3.35;2.67;;;;;;;29.63;44.95;97489.88;5071635;28;20583;-74
2021/07/04 10:21:02;;;;;;;3.58;3.00;;;;;;;30.59;42.89;97501.25;5071616;28;20207;-73
2021/07/04 10:23:29;;;;;;;3.70;2.58;;;;;;;29.88;45.21;97485.28;5077952;28;20216;-76
2021/07/04 10:25:59;;;;;;;3.83;3.38;;;;;;;31.74;40.98;97498.78;5056824;28;20675;-74
2021/07/04 10:28:31;;;;;;;3.60;3.15;;;24.20;1.00;;;33.69;35.23;97512.59;5071598;28;20213;-75
2021/07/04 10:30:59;;;;;;;3.05;2.75;;;;;;;33.75;34.13;97513.94;5071391;28;20209;-75
2021/07/04 10:33:32;;;;;;;3.70;2.72;;;;;;;33.61;33.32;97519.97;5068416;28;20229;-74
2021/07/04 10:36:15;;;;;;;4.78;2.58;;;25.20;1.00;;;34.81;31.93;97522.47;5069783;28;20229;-74
2021/07/04 10:38:50;;;;;;;2.88;2.67;;;25.50;1.00;;;33.87;33.31;97519.34;5061905;28;20224;-75
2021/07/04 10:41:22;;;;;;;4.57;2.88;;;25.50;1.00;;;32.82;35.26;97514.84;5069018;28;20243;-74
2021/07/04 10:43:58;;;;;;;3.10;2.80;;;25.40;1.00;;;31.99;38.67;97505.00;5064104;28;20558;-77
2021/07/04 10:47:15;;;;;;;4.30;2.90;;;25.00;1.00;;;33.74;34.59;97492.94;5069765;28;20235;-75
2021/07/04 10:49:52;;;;;;;3.30;2.85;;;25.00;1.00;;;31.29;40.44;97486.28;5071953;28;20238;-77
2021/07/04 10:52:24;;;;;;;3.58;3.10;;;24.50;1.00;;;33.01;36.94;97483.72;5067339;28;20207;-78
2021/07/04 10:54:57;;;;;;;3.90;3.00;;;24.30;1.00;;;33.63;35.48;97489.13;5071478;28;20229;-77
2021/07/04 10:57:33;;;;;;;3.97;3.00;;;24.40;1.00;;;33.87;35.51;97486.13;5072338;28;20208;-78
2021/07/04 11:00:41;;;;;;;3.58;2.67;;;24.20;1.00;;;32.81;37.03;97491.13;5076133;28;20307;-79
2021/07/04 11:03:12;;;;;;;3.17;2.88;;;24.20;1.00;;;32.21;40.44;97471.28;5074447;28;20196;-77
2021/07/04 11:05:48;;;;;;;3.88;3.00;;;24.00;1.00;;;32.50;39.27;97470.94;5075337;28;20221;-79
2021/07/04 11:08:18;;;;;;;4.10;3.15;;;23.80;1.00;;;32.92;38.20;97469.25;5067569;28;20346;-77
2021/07/04 11:11:07;;;;;;;3.80;2.67;;;23.80;1.00;;;32.16;39.94;97468.78;5073924;28;20670;-78
2021/07/04 11:13:46;;;;;;;3.17;2.88;;;23.80;1.00;;;31.80;39.59;97471.72;5074919;28;20714;-76
2021/07/04 11:16:24;;;;;;;6.15;3.00;;;23.80;1.00;;;31.88;41.05;97457.75;5069271;28;20221;-77
2021/07/04 11:18:55;;;;;;;3.60;2.90;;;23.60;1.00;;;32.91;37.29;97460.19;5074234;28;20204;-77
2021/07/04 11:21:49;;;;;;;4.32;3.00;;;23.90;1.00;;;32.33;39.42;97447.19;5069262;28;20201;-76
2021/07/04 11:24:19;;;;;;;4.68;3.20;;;24.10;1.00;;;32.82;38.47;97437.44;5076773;28;20685;-80